METAR AND TAF INFORMATION
METAR FOR KATL
ADDS - METARS form results

(1936 UTC 26 April 2018)
Data provider http://aviationweather.gov/adds/metars/
 
METAR text: KATL 261852Z 10008KT 4SM -RA BR FEW005 SCT050 OVC080 14/13 A2985 RMK AO2 SLP108 P0017 T01390133
Conditions at: KATL (ATLANTA , GA, US) observed 1852 UTC 26 April 2018
Temperature: 13.9°C (57°F)
Dewpoint: 13.3°C (56°F) [RH = 96%]
Pressure (altimeter): 29.85 inches Hg (1010.9 mb)
[Sea-level pressure: 1010.8 mb]
Winds: from the E (100 degrees) at 9 MPH (8 knots; 4.2 m/s)
Visibility: 4 miles (6 km)
Ceiling: 8000 feet AGL
Clouds: few clouds at 500 feet AGL
scattered clouds at 5000 feet AGL
overcast cloud deck at 8000 feet AGL
Weather: -RA BR  (light rain, mist)

Forecast for: KATL (ATLANTA , GA, US)
Text: KATL 261729Z 2618/2724 09009KT 5SM -SHRA FEW015 BKN025 OVC045
Forecast period: 1800 UTC 26 April 2018 to 0100 UTC 27 April 2018
Forecast type: FROM: standard forecast or significant change
Winds: from the E (90 degrees) at 10 MPH (9 knots; 4.7 m/s)
Visibility: 5 miles (8 km)
Ceiling: 2500 feet AGL
Clouds: few clouds at 1500 feet AGL
broken clouds at 2500 feet AGL
overcast cloud deck at 4500 feet AGL
Weather: -SHRA  (light rain showers)
Forecast for: KATL (ATLANTA , GA, US)
Text: KATL 261729Z 2618/2724 09009KT 5SM -SHRA FEW015 BKN025 OVC045
Forecast period: 1800 UTC 26 April 2018 to 0100 UTC 27 April 2018
Forecast type: FROM: standard forecast or significant change
Winds: from the E (90 degrees) at 10 MPH (9 knots; 4.7 m/s)
Visibility: 5 miles (8 km)
Ceiling: 2500 feet AGL
Clouds: few clouds at 1500 feet AGL
broken clouds at 2500 feet AGL
overcast cloud deck at 4500 feet AGL
Weather: -SHRA  (light rain showers)
Forecast for: KATL (ATLANTA , GA, US)
Text: KATL 261729Z 2618/2724 09009KT 5SM -SHRA FEW015 BKN025 OVC045
Forecast period: 2200 UTC 26 April 2018 to 0100 UTC 27 April 2018
Forecast type: TEMPORARY: The following changes expected for less than half the time period
Visibility: 3 miles (5 km)
Ceiling: 1500 feet AGL
Clouds: broken clouds at 1500 feet AGL
Weather: -TSRA  (light rain associated with thunderstorm(s))
Forecast for: KATL (ATLANTA , GA, US)
Text: KATL 261729Z 2618/2724 09009KT 5SM -SHRA FEW015 BKN025 OVC045
Forecast period: 2200 UTC 26 April 2018 to 0100 UTC 27 April 2018
Forecast type: TEMPORARY: The following changes expected for less than half the time period
Visibility: 3 miles (5 km)
Ceiling: 1500 feet AGL
Clouds: broken clouds at 1500 feet AGL
Weather: -TSRA  (light rain associated with thunderstorm(s))
Forecast for: KATL (ATLANTA , GA, US)
Text: KATL 261729Z 2618/2724 09009KT 5SM -SHRA FEW015 BKN025 OVC045
Forecast period: 0100 to 0400 UTC 27 April 2018
Forecast type: FROM: standard forecast or significant change
Winds: from the SW (220 degrees) at 8 MPH (7 knots; 3.6 m/s)
Visibility: 6 miles (10 km)
Ceiling: 4000 feet AGL
Clouds: scattered clouds at 2000 feet AGL
overcast cloud deck at 4000 feet AGL
Weather: -SHRA  (light rain showers)
Forecast for: KATL (ATLANTA , GA, US)
Text: KATL 261729Z 2618/2724 09009KT 5SM -SHRA FEW015 BKN025 OVC045
Forecast period: 0100 to 0400 UTC 27 April 2018
Forecast type: FROM: standard forecast or significant change
Winds: from the SW (220 degrees) at 8 MPH (7 knots; 3.6 m/s)
Visibility: 6 miles (10 km)
Ceiling: 4000 feet AGL
Clouds: scattered clouds at 2000 feet AGL
overcast cloud deck at 4000 feet AGL
Weather: -SHRA  (light rain showers)
Forecast for: KATL (ATLANTA , GA, US)
Text: KATL 261729Z 2618/2724 09009KT 5SM -SHRA FEW015 BKN025 OVC045
Forecast period: 0400 to 0800 UTC 27 April 2018
Forecast type: FROM: standard forecast or significant change
Winds: from the W (260 degrees) at 7 MPH (6 knots; 3.1 m/s)
Visibility: 6 or more miles (10+ km)
Ceiling: 2500 feet AGL
Clouds: broken clouds at 2500 feet AGL
Weather: VCSH  (showers in vicinity)
Forecast for: KATL (ATLANTA , GA, US)
Text: KATL 261729Z 2618/2724 09009KT 5SM -SHRA FEW015 BKN025 OVC045
Forecast period: 0400 to 0800 UTC 27 April 2018
Forecast type: FROM: standard forecast or significant change
Winds: from the W (260 degrees) at 7 MPH (6 knots; 3.1 m/s)
Visibility: 6 or more miles (10+ km)
Ceiling: 2500 feet AGL
Clouds: broken clouds at 2500 feet AGL
Weather: VCSH  (showers in vicinity)
Forecast for: KATL (ATLANTA , GA, US)
Text: KATL 261729Z 2618/2724 09009KT 5SM -SHRA FEW015 BKN025 OVC045
Forecast period: 0800 to 1200 UTC 27 April 2018
Forecast type: FROM: standard forecast or significant change
Winds: from the WNW (290 degrees) at 8 MPH (7 knots; 3.6 m/s)
Visibility: 5 miles (8 km)
Ceiling: 800 feet AGL
Clouds: overcast cloud deck at 800 feet AGL
Weather: BR  (mist)
Forecast for: KATL (ATLANTA , GA, US)
Text: KATL 261729Z 2618/2724 09009KT 5SM -SHRA FEW015 BKN025 OVC045
Forecast period: 0800 to 1200 UTC 27 April 2018
Forecast type: FROM: standard forecast or significant change
Winds: from the WNW (290 degrees) at 8 MPH (7 knots; 3.6 m/s)
Visibility: 5 miles (8 km)
Ceiling: 800 feet AGL
Clouds: overcast cloud deck at 800 feet AGL
Weather: BR  (mist)
Forecast for: KATL (ATLANTA , GA, US)
Text: KATL 261729Z 2618/2724 09009KT 5SM -SHRA FEW015 BKN025 OVC045
Forecast period: 1200 to 1500 UTC 27 April 2018
Forecast type: FROM: standard forecast or significant change
Winds: from the NW (310 degrees) at 9 MPH (8 knots; 4.2 m/s)
Visibility: 6 or more miles (10+ km)
Ceiling: 1500 feet AGL
Clouds: few clouds at 800 feet AGL
overcast cloud deck at 1500 feet AGL
Weather: no significant weather forecast for this period
Forecast for: KATL (ATLANTA , GA, US)
Text: KATL 261729Z 2618/2724 09009KT 5SM -SHRA FEW015 BKN025 OVC045
Forecast period: 1200 to 1500 UTC 27 April 2018
Forecast type: FROM: standard forecast or significant change
Winds: from the NW (310 degrees) at 9 MPH (8 knots; 4.2 m/s)
Visibility: 6 or more miles (10+ km)
Ceiling: 1500 feet AGL
Clouds: few clouds at 800 feet AGL
overcast cloud deck at 1500 feet AGL
Weather: no significant weather forecast for this period
Forecast for: KATL (ATLANTA , GA, US)
Text: KATL 261729Z 2618/2724 09009KT 5SM -SHRA FEW015 BKN025 OVC045
Forecast period: 1500 to 1800 UTC 27 April 2018
Forecast type: FROM: standard forecast or significant change
Winds: from the NW (320 degrees) at 12 MPH (10 knots; 5.2 m/s)
Visibility: 6 or more miles (10+ km)
Clouds: scattered clouds at 1200 feet AGL
scattered clouds at 3500 feet AGL
Weather: no significant weather forecast for this period
Forecast for: KATL (ATLANTA , GA, US)
Text: KATL 261729Z 2618/2724 09009KT 5SM -SHRA FEW015 BKN025 OVC045
Forecast period: 1500 to 1800 UTC 27 April 2018
Forecast type: FROM: standard forecast or significant change
Winds: from the NW (320 degrees) at 12 MPH (10 knots; 5.2 m/s)
Visibility: 6 or more miles (10+ km)
Clouds: scattered clouds at 1200 feet AGL
scattered clouds at 3500 feet AGL
Weather: no significant weather forecast for this period
Forecast for: KATL (ATLANTA , GA, US)
Text: KATL 261729Z 2618/2724 09009KT 5SM -SHRA FEW015 BKN025 OVC045
Forecast period: 1800 UTC 27 April 2018 to 0000 UTC 28 April 2018
Forecast type: FROM: standard forecast or significant change
Winds: from the NNW (330 degrees) at 13 MPH (11 knots; 5.7 m/s)
gusting to 23 MPH (20 knots; 10.4 m/s)
Visibility: 6 or more miles (10+ km)
Clouds: scattered clouds at 4000 feet AGL
Weather: no significant weather forecast for this period
Forecast for: KATL (ATLANTA , GA, US)
Text: KATL 261729Z 2618/2724 09009KT 5SM -SHRA FEW015 BKN025 OVC045
Forecast period: 1800 UTC 27 April 2018 to 0000 UTC 28 April 2018
Forecast type: FROM: standard forecast or significant change
Winds: from the NNW (330 degrees) at 13 MPH (11 knots; 5.7 m/s)
gusting to 23 MPH (20 knots; 10.4 m/s)
Visibility: 6 or more miles (10+ km)
Clouds: scattered clouds at 4000 feet AGL
Weather: no significant weather forecast for this period

 AIRPORT MAP

 RUNWAY INFORMATION
Runway 08L Runway length 9000 ft Runway width 150 ft
Runway elevation 1015 ft Runway displaced threshold 0 ft Runway heading 90
Runway 26R Runway length 9000 ft Runway width 150 ft
Runway elevation 990 ft Runway displaced threshold 0 ft Runway heading 270
Runway 08R Runway length 10000 ft Runway width 150 ft
Runway elevation 1024 ft Runway displaced threshold 0 ft Runway heading 90
Runway 26L Runway length 10000 ft Runway width 150 ft
Runway elevation 995 ft Runway displaced threshold 0 ft Runway heading 270
Runway 09L Runway length 11890 ft Runway width 150 ft
Runway elevation 1019 ft Runway displaced threshold 0 ft Runway heading 90
Runway 27R Runway length 11890 ft Runway width 150 ft
Runway elevation 978 ft Runway displaced threshold 0 ft Runway heading 270
Runway 09R Runway length 9001 ft Runway width 150 ft
Runway elevation 1026 ft Runway displaced threshold 0 ft Runway heading 90
Runway 27L Runway length 9001 ft Runway width 150 ft
Runway elevation 985 ft Runway displaced threshold 0 ft Runway heading 270
Runway 10 Runway length 9000 ft Runway width 150 ft
Runway elevation 1000 ft Runway displaced threshold 0 ft Runway heading 90
Runway 28 Runway length 9000 ft Runway width 150 ft
Runway elevation 998 ft Runway displaced threshold 0 ft Runway heading 270

 AIRPORT FREQUENCIES
Type APP Name ATLANTA AP Frequency 118.35 MHZ
Type ATIS Name ATIS Frequency 119.65 MHZ
Type CLD Name CLNC DEL Frequency 118.1 MHZ
Type DEP Name ATLANTA DE Frequency 125 MHZ
Type GND Name GND Frequency 121.65 MHZ
Type RDO Name MACON RDO Frequency 116.9 MHZ
Type SFA Name SFA Frequency 30.697 MHZ
Type TWR Name ATLANTA TW Frequency 119.1 MHZ
Type UNIC Name UNICOM Frequency 122.95 MHZ

 AIRPORT NEAR NAVIGATION AIDS
Type NDB Name Catta Frequency 375 KHZ
Type VORTAC Name Atlanta Frequency 116900 KHZ
Type NDB Name Redan Frequency 266 KHZ



v2.6.1